Terminal Aerodrome Forecast
Issued by NWS

Home | Current Version | Previous Version | Text Only | Print | Product List | Glossary On
Versions: 1 2 3 4 5 6 7 8 9 10 11 12 13 14 15 16 17
000
FTUS44 KSJT 042331
TAFSOA
TAF
KSOA 042331Z 0500/0524 17009KT P6SM SCT080
     FM050100 15006KT P6SM SKC
     FM051200 16004KT P6SM BKN015
      TEMPO 0512/0515 SCT015
     FM051500 17008KT P6SM FEW025
     FM051700 17010KT P6SM SCT050=

USA.gov is the U.S. government's official web portal to all federal, state and local government web resources and services.